University of Illinois Willard Airport
KCMI : now visible

Airfield :











YOU CAN JOIN US ON...

 
LOGIN :

Register | Disclaimer

   EN    FR    IT 

 









Legend :    VFR   Marginal VFR   IFR   Intensive IFR   Very Intensive IFR
Visi :
Ceiling :
>= 8 km
>= 3000ft
5 to 8 km
1000 to 3000 ft
1500m to 5 km
500 to 1000 ft
800 to 1500m
200 to 500 ft
< 800m
< 200 ft
Symbols :   Thunderstorms  Fog  Heavy snow  Heavy precipitations  Wind > 20 kt






- Airport Elevation : 755 ft
- IATA code : CMI


KCMI - University of Illinois Willard

CURRENT METAR :
  • 231353Z 19010KT 10SM SCT060 02/M01 A3006 RMK AO2 SLP188 T00171011

EXPIRED METARs :
  • 231253Z 19008KT 10SM OVC060 01/M02 A3006 RMK AO2 SLP186 T00111017
  • 231153Z 19010KT 10SM OVC060 01/M02 A3007 RMK AO2 SLP188 T00111017 10011 21022 56007

TAF KCMI
Valid from the 23 at 12:00 until the 24 at 12:00 UTC


231137Z 2312/2412 20009KT P6SM BKN050
FM231600 23009KT P6SM FEW040 SCT250
FM240400 20006KT P6SM SCT030 OVC150
FM240900 VRB04KT P6SM BKN020



MET'MAP, your aeronautical weather chart ! - Copyright ORBIFLY December 2007 - Disclaimer

ORBIFLY MET'MAP TEAM :

Programming & Development : Alexandra Zaïnal
Concept & original design : Baudouin d'Aumeries
Assistance for programming : Marc-Olivier Méhu
Technical & hardware support : Manuel Goepfert

Contact : metmap@orbifly.com




SOURCES & CREDITS :

   NOAA       Earth
Advisory